Terminal Aerodrome Forecast
Issued by NWS

Home | Current Version | Previous Version | Graphics & Text | Print | Product List | Glossary On
Versions: 1 2 3 4 5 6 7 8 9 10 11 12 13 14
000
FTUS45 KGGW 212320
TAFSDY
TAF
KSDY 212320Z 2200/2224 03009KT P6SM VCSH OVC050
     FM220200 05006KT P6SM OVC020
     FM221400 07010G18KT P6SM VCSH OVC025
     FM221500 07010G19KT 5SM -RA OVC020
     FM221800 09012G21KT 6SM -RA OVC035=

USA.gov is the U.S. government's official web portal to all federal, state and local government web resources and services.